X  Luk Metar data     EKYT Aalborg Airport
Temperatur
22°C Temperatur
7°C Dugpunkt
38% Fugtighed



Vind
4 M/S
9 MPT
14 KM/T
8 KNOB



310°
NV
Nuværende forhold

Klart Klart
Tryk 1010.84 (hPa) - 29.85 (inHg)
Sigt 6 (mil) - 9.7 (km)
Lufthavn
Lufthavnskode EKYT

Lokation: Aalborg Airport
Afstand: 54 (km)

Metar:
EKYT 191450Z AUTO 31008KT 270V340 9999 NCD 22/07 Q1011

Tid: 19-05-2024 16:50 CEST